createdAt,value
2017-10-14T00:01:06.412Z,26.55
2017-10-14T00:03:41.784Z,33.78
2017-10-14T00:06:16.837Z,24.90
2017-10-14T00:08:51.144Z,26.92
2017-10-14T00:11:25.498Z,26.75
2017-10-14T00:14:00.663Z,28.75
2017-10-14T00:16:35.490Z,25.35
2017-10-14T00:19:11.852Z,20.35
2017-10-14T00:21:46.244Z,29.10
2017-10-14T00:24:20.576Z,29.42
2017-10-14T00:26:55.028Z,25.02
2017-10-14T00:29:29.511Z,24.55
2017-10-14T00:32:03.835Z,18.73
2017-10-14T00:34:38.232Z,30.15
2017-10-14T00:37:12.719Z,24.65
2017-10-14T00:39:47.182Z,29.37
2017-10-14T00:42:22.372Z,22.77
2017-10-14T00:44:56.884Z,24.20
2017-10-14T00:47:31.331Z,26.23
2017-10-14T00:50:05.797Z,27.73
2017-10-14T00:52:40.315Z,16.02
2017-10-14T00:55:15.508Z,20.45
2017-10-14T00:57:50.036Z,22.95
2017-10-14T01:00:24.500Z,28.48
2017-10-14T01:02:59.796Z,26.10
2017-10-14T01:05:34.219Z,16.60
2017-10-14T01:08:08.546Z,29.17
2017-10-14T01:10:43.081Z,25.40
2017-10-14T01:13:17.440Z,22.60
2017-10-14T01:15:51.772Z,17.02
2017-10-14T01:18:26.252Z,25.73
2017-10-14T01:21:00.641Z,26.40
2017-10-14T01:23:35.000Z,19.75
2017-10-14T01:26:09.443Z,24.02
2017-10-14T01:28:43.792Z,24.02
2017-10-14T01:31:19.270Z,23.27
2017-10-14T01:33:53.776Z,26.02
2017-10-14T01:36:28.255Z,22.13
2017-10-14T01:39:02.650Z,24.37
2017-10-14T01:41:37.014Z,22.92
2017-10-14T01:44:11.395Z,21.95
2017-10-14T01:46:45.805Z,25.00
2017-10-14T01:49:20.225Z,24.73
2017-10-14T01:51:54.678Z,21.90
2017-10-14T01:54:30.047Z,21.95
2017-10-14T01:57:04.518Z,25.00
2017-10-14T01:59:39.091Z,26.02
2017-10-14T02:02:13.607Z,22.27
2017-10-14T02:04:48.028Z,21.58
2017-10-14T02:07:22.523Z,21.98
2017-10-14T02:09:57.036Z,22.37
2017-10-14T02:12:31.513Z,24.30
2017-10-14T02:15:05.866Z,21.83
2017-10-14T02:17:40.441Z,25.00
2017-10-14T02:20:14.728Z,25.50
2017-10-14T02:22:49.136Z,25.05
2017-10-14T02:25:23.644Z,23.80
2017-10-14T02:27:58.074Z,21.12
2017-10-14T02:30:32.632Z,20.40
2017-10-14T02:33:07.794Z,23.52
2017-10-14T02:35:42.724Z,20.25
2017-10-14T02:38:17.119Z,21.65
2017-10-14T02:40:51.504Z,17.23
2017-10-14T02:43:26.078Z,19.98
2017-10-14T02:46:00.568Z,21.48
2017-10-14T02:48:34.930Z,25.20
2017-10-14T02:51:10.206Z,18.67
2017-10-14T02:53:44.868Z,24.02
2017-10-14T02:56:20.280Z,18.23
2017-10-14T02:58:54.751Z,26.15
2017-10-14T03:01:29.198Z,22.15
2017-10-14T03:04:03.540Z,22.05
2017-10-14T03:06:38.672Z,23.30
2017-10-14T03:09:13.027Z,20.92
2017-10-14T03:11:47.381Z,23.12
2017-10-14T03:14:21.883Z,19.50
2017-10-14T03:16:56.248Z,27.50
2017-10-14T03:19:30.581Z,19.17
2017-10-14T03:22:05.111Z,20.52
2017-10-14T03:24:39.510Z,19.92
2017-10-14T03:27:14.050Z,21.92
2017-10-14T03:29:48.868Z,24.63
2017-10-14T03:32:23.402Z,29.65
2017-10-14T03:34:59.266Z,25.20
2017-10-14T03:37:33.777Z,21.70
2017-10-14T03:40:08.125Z,19.37
2017-10-14T03:42:42.516Z,17.30
2017-10-14T03:45:17.606Z,19.55
2017-10-14T03:47:51.954Z,26.80
2017-10-14T03:50:26.486Z,20.40
2017-10-14T03:53:00.838Z,21.12
2017-10-14T03:55:35.301Z,28.87
2017-10-14T03:58:10.431Z,22.02
2017-10-14T04:00:45.552Z,21.12
2017-10-14T04:03:19.916Z,23.35
2017-10-14T04:05:54.657Z,25.42
2017-10-14T04:08:29.204Z,27.67
2017-10-14T04:11:03.673Z,26.00
2017-10-14T04:13:38.032Z,21.35
2017-10-14T04:16:12.392Z,21.65
2017-10-14T04:18:46.759Z,23.27
2017-10-14T04:21:21.262Z,24.00
2017-10-14T04:23:55.799Z,20.58
2017-10-14T04:26:30.080Z,21.40
2017-10-14T04:29:04.854Z,18.40
2017-10-14T04:31:39.328Z,18.45
2017-10-14T04:34:13.832Z,22.92
2017-10-14T04:36:48.211Z,23.42
2017-10-14T04:39:22.797Z,19.12
2017-10-14T04:41:57.213Z,23.10
2017-10-14T04:44:31.611Z,19.92
2017-10-14T04:47:06.747Z,21.92
2017-10-14T04:49:41.208Z,23.12
2017-10-14T04:52:15.667Z,22.20
2017-10-14T04:54:50.039Z,26.08
2017-10-14T04:57:24.507Z,21.20
2017-10-14T04:59:58.978Z,25.40
2017-10-14T05:02:33.490Z,22.00
2017-10-14T05:05:07.844Z,18.30
2017-10-14T05:07:43.047Z,20.98
2017-10-14T05:10:18.294Z,22.95
2017-10-14T05:12:52.815Z,20.92
2017-10-14T05:15:27.341Z,24.65
2017-10-14T05:18:02.613Z,23.73
2017-10-14T05:20:36.968Z,22.67
2017-10-14T05:23:12.097Z,23.20
2017-10-14T05:25:46.441Z,22.13
2017-10-14T05:28:20.823Z,21.80
2017-10-14T05:30:55.145Z,22.77
2017-10-14T05:33:29.647Z,17.45
2017-10-14T05:36:05.052Z,17.40
2017-10-14T05:38:39.433Z,17.98
2017-10-14T05:41:13.787Z,18.55
2017-10-14T05:43:48.296Z,23.90
2017-10-14T05:46:22.752Z,20.50
2017-10-14T05:48:57.268Z,18.80
2017-10-14T05:51:32.502Z,21.87
2017-10-14T05:54:07.672Z,22.00
2017-10-14T05:56:42.948Z,22.40
2017-10-14T05:59:17.405Z,18.17
2017-10-14T06:01:51.915Z,21.62
2017-10-14T06:04:26.260Z,19.67
2017-10-14T06:07:00.673Z,14.65
2017-10-14T06:09:35.126Z,17.50
2017-10-14T06:12:09.577Z,24.50
2017-10-14T06:14:43.892Z,17.30
2017-10-14T06:17:19.124Z,22.65
2017-10-14T06:19:54.340Z,21.60
2017-10-14T06:22:28.797Z,30.33
2017-10-14T06:25:03.123Z,19.55
2017-10-14T06:27:38.162Z,33.47
2017-10-14T06:30:12.558Z,23.58
2017-10-14T06:32:47.053Z,16.50
2017-10-14T06:35:21.526Z,20.85
2017-10-14T06:37:56.631Z,18.37
2017-10-14T06:40:31.081Z,19.77
2017-10-14T06:43:05.425Z,22.77
2017-10-14T06:45:39.825Z,26.50
2017-10-14T06:48:14.285Z,33.95
2017-10-14T06:50:48.771Z,22.27
2017-10-14T06:53:23.291Z,26.58
2017-10-14T06:55:57.796Z,18.83
2017-10-14T06:58:32.359Z,26.90
2017-10-14T07:01:06.844Z,23.85
2017-10-14T07:03:41.123Z,15.00
2017-10-14T07:06:15.448Z,27.62
2017-10-14T07:08:50.664Z,26.08
2017-10-14T07:11:25.146Z,27.10
2017-10-14T07:13:59.603Z,24.42
2017-10-14T07:16:34.073Z,21.20
2017-10-14T07:19:09.115Z,25.80
2017-10-14T07:21:44.161Z,27.70
2017-10-14T07:24:18.734Z,26.42
2017-10-14T07:26:53.213Z,30.02
2017-10-14T07:29:27.814Z,30.55
2017-10-14T07:32:02.304Z,20.85
2017-10-14T07:34:36.716Z,18.48
2017-10-14T07:37:11.084Z,30.50
2017-10-14T07:39:46.244Z,16.62
2017-10-14T07:42:20.830Z,21.02
2017-10-14T07:44:55.917Z,26.70
2017-10-14T07:47:30.832Z,32.58
2017-10-14T07:50:05.164Z,17.98
2017-10-14T07:52:39.568Z,22.50
2017-10-14T07:55:14.060Z,15.85
2017-10-14T07:57:48.625Z,18.85
2017-10-14T08:00:23.911Z,19.95
2017-10-14T08:02:58.439Z,26.85
2017-10-14T08:05:32.952Z,19.52
2017-10-14T08:08:08.156Z,21.50
2017-10-14T08:10:42.570Z,16.42
2017-10-14T08:13:16.957Z,19.83
2017-10-14T08:15:51.527Z,17.17
2017-10-14T08:18:25.983Z,18.40
2017-10-14T08:21:00.380Z,11.63
2017-10-14T08:23:34.976Z,26.20
2017-10-14T08:26:09.267Z,17.83
2017-10-14T08:28:43.802Z,18.87
2017-10-14T08:31:18.278Z,18.08
2017-10-14T08:33:52.793Z,14.77
2017-10-14T08:36:27.154Z,16.90
2017-10-14T08:39:01.529Z,13.02
2017-10-14T08:41:36.139Z,13.73
2017-10-14T08:44:10.805Z,12.05
2017-10-14T08:46:45.123Z,19.67
2017-10-14T08:49:19.561Z,18.83
2017-10-14T08:51:53.985Z,12.65
2017-10-14T08:54:28.418Z,14.60
2017-10-14T08:57:02.982Z,13.73
2017-10-14T08:59:37.466Z,14.50
2017-10-14T09:02:11.850Z,12.82
2017-10-14T09:04:46.286Z,14.75
2017-10-14T09:07:20.716Z,17.92
2017-10-14T09:09:55.224Z,16.92
2017-10-14T09:12:29.751Z,11.82
2017-10-14T09:15:04.241Z,13.85
2017-10-14T09:17:38.715Z,17.95
2017-10-14T09:20:13.014Z,15.90
2017-10-14T09:22:47.368Z,16.05
2017-10-14T09:25:21.847Z,15.93
2017-10-14T09:27:56.987Z,14.00
2017-10-14T09:30:31.426Z,14.48
2017-10-14T09:33:06.651Z,14.38
2017-10-14T09:35:41.101Z,14.50
2017-10-14T09:38:15.600Z,19.05
2017-10-14T09:40:50.112Z,13.40
2017-10-14T09:43:24.483Z,24.42
2017-10-14T09:45:58.938Z,21.60
2017-10-14T09:48:34.216Z,15.13
2017-10-14T09:51:08.674Z,11.95
2017-10-14T09:53:43.745Z,14.43
2017-10-14T09:56:18.882Z,19.25
2017-10-14T09:58:54.117Z,12.90
2017-10-14T10:01:28.560Z,15.93
2017-10-14T10:04:03.091Z,12.77
2017-10-14T10:06:37.495Z,11.95
2017-10-14T10:09:12.001Z,13.82
2017-10-14T10:11:46.569Z,9.63
2017-10-14T10:14:21.741Z,13.80
2017-10-14T10:16:56.124Z,15.13
2017-10-14T10:19:30.666Z,10.30
2017-10-14T10:22:05.095Z,13.15
2017-10-14T10:24:39.558Z,16.20
2017-10-14T10:27:14.038Z,12.43
2017-10-14T10:29:48.560Z,14.32
2017-10-14T10:32:22.928Z,11.40
2017-10-14T10:34:57.396Z,13.23
2017-10-14T10:37:31.771Z,10.98
2017-10-14T10:40:06.972Z,12.70
2017-10-14T10:42:42.331Z,16.23
2017-10-14T10:45:17.087Z,12.80
2017-10-14T10:47:52.204Z,10.70
2017-10-14T10:50:26.487Z,15.77
2017-10-14T10:53:00.804Z,12.93
2017-10-14T10:55:35.381Z,13.77
2017-10-14T10:58:09.748Z,11.63
2017-10-14T11:00:45.741Z,15.35
2017-10-14T11:03:20.816Z,15.10
2017-10-14T11:05:55.277Z,12.88
2017-10-14T11:08:29.779Z,21.17
2017-10-14T11:11:04.365Z,16.83
2017-10-14T11:13:39.044Z,21.65
2017-10-14T11:16:13.576Z,20.88
2017-10-14T11:18:48.040Z,22.25
2017-10-14T11:21:22.552Z,28.48
2017-10-14T11:23:57.032Z,26.67
2017-10-14T11:26:31.503Z,27.17
2017-10-14T11:29:06.027Z,24.05
2017-10-14T11:31:41.203Z,31.65
2017-10-14T11:34:15.528Z,24.65
2017-10-14T11:36:50.260Z,21.98
2017-10-14T11:39:25.428Z,22.67
2017-10-14T11:42:00.024Z,25.90
2017-10-14T11:44:34.697Z,26.90
2017-10-14T11:47:09.271Z,29.48
2017-10-14T11:49:43.570Z,21.67
2017-10-14T11:52:18.239Z,28.52
2017-10-14T11:54:52.721Z,32.30
2017-10-14T11:57:27.028Z,31.87
2017-10-14T12:00:01.558Z,34.13
2017-10-14T12:02:35.986Z,35.95
2017-10-14T12:05:10.607Z,37.03
2017-10-14T12:07:45.708Z,33.75
2017-10-14T12:10:20.090Z,31.05
2017-10-14T12:12:54.614Z,34.08
2017-10-14T12:15:29.084Z,31.77
2017-10-14T12:18:03.436Z,31.60
2017-10-14T12:20:37.884Z,32.03
2017-10-14T12:23:12.377Z,39.10
2017-10-14T12:25:46.911Z,37.92
2017-10-14T12:28:21.263Z,32.75
2017-10-14T12:30:55.630Z,33.83
2017-10-14T12:33:30.859Z,37.35
2017-10-14T12:36:05.342Z,31.60
2017-10-14T12:38:40.599Z,26.85
2017-10-14T12:41:15.881Z,32.05
2017-10-14T12:43:50.358Z,38.33
2017-10-14T12:46:24.695Z,40.10
2017-10-14T12:48:58.995Z,29.08
2017-10-14T12:51:34.279Z,35.58
2017-10-14T12:54:08.621Z,24.60
2017-10-14T12:56:43.093Z,27.70
2017-10-14T12:59:17.617Z,27.77
2017-10-14T13:01:51.951Z,34.08
2017-10-14T13:04:26.325Z,27.35
2017-10-14T13:07:00.714Z,23.25
2017-10-14T13:09:35.220Z,27.17
2017-10-14T13:12:09.787Z,36.08
2017-10-14T13:14:44.129Z,30.75
2017-10-14T13:17:18.668Z,27.58
2017-10-14T13:19:53.136Z,30.33
2017-10-14T13:22:27.628Z,26.12
2017-10-14T13:25:02.721Z,26.65
2017-10-14T13:27:37.979Z,31.58
2017-10-14T13:30:12.366Z,18.73
2017-10-14T13:32:46.732Z,28.55
2017-10-14T13:35:21.333Z,24.12
2017-10-14T13:37:55.704Z,21.40
2017-10-14T13:40:30.227Z,21.02
2017-10-14T13:43:05.389Z,27.77
2017-10-14T13:45:39.971Z,39.33
2017-10-14T13:48:15.181Z,32.20
2017-10-14T13:50:49.624Z,21.77
2017-10-14T13:53:24.037Z,29.15
2017-10-14T13:55:58.394Z,22.45
2017-10-14T13:58:32.831Z,25.48
2017-10-14T14:01:07.149Z,33.42
2017-10-14T14:03:41.477Z,35.72
2017-10-14T14:06:15.804Z,35.63
2017-10-14T14:08:50.236Z,24.75
2017-10-14T14:11:24.767Z,26.80
2017-10-14T14:13:59.111Z,32.42
2017-10-14T14:16:33.563Z,31.30
2017-10-14T14:19:08.261Z,18.33
2017-10-14T14:21:42.717Z,27.92
2017-10-14T14:24:17.065Z,28.20
2017-10-14T14:26:51.459Z,35.47
2017-10-14T14:29:25.909Z,33.20
2017-10-14T14:32:00.541Z,23.05
2017-10-14T14:34:34.994Z,28.90
2017-10-14T14:37:09.325Z,28.35
2017-10-14T14:39:44.584Z,22.10
2017-10-14T14:42:20.362Z,21.40
2017-10-14T14:44:55.352Z,25.62
2017-10-14T14:47:29.860Z,25.70
2017-10-14T14:50:04.362Z,22.25
2017-10-14T14:52:38.780Z,27.17
2017-10-14T14:55:13.195Z,29.08
2017-10-14T14:57:47.505Z,22.55
2017-10-14T15:00:22.081Z,24.08
2017-10-14T15:02:56.584Z,16.83
2017-10-14T15:05:31.549Z,18.98
2017-10-14T15:08:06.123Z,16.35
2017-10-14T15:10:40.491Z,14.23
2017-10-14T15:13:14.891Z,15.23
2017-10-14T15:15:49.285Z,15.10
2017-10-14T15:18:23.749Z,15.70
2017-10-14T15:20:59.048Z,21.73
2017-10-14T15:23:34.296Z,23.62
2017-10-14T15:26:08.788Z,16.65
2017-10-14T15:28:43.285Z,14.77
2017-10-14T15:31:17.828Z,18.73
2017-10-14T15:33:52.283Z,16.67
2017-10-14T15:36:26.813Z,20.35
2017-10-14T15:39:01.168Z,16.33
2017-10-14T15:41:35.556Z,15.80
2017-10-14T15:44:10.116Z,17.52
2017-10-14T15:46:45.343Z,17.35
2017-10-14T15:49:19.964Z,19.58
2017-10-14T15:51:54.547Z,23.62
2017-10-14T15:54:28.937Z,18.95
2017-10-14T15:57:03.237Z,20.20
2017-10-14T15:59:37.817Z,19.95
2017-10-14T16:02:13.782Z,20.90
2017-10-14T16:04:48.241Z,20.85
2017-10-14T16:07:22.567Z,23.60
2017-10-14T16:09:56.967Z,23.27
2017-10-14T16:12:31.358Z,22.05
2017-10-14T16:15:05.869Z,16.37
2017-10-14T16:17:40.367Z,21.67
2017-10-14T16:20:14.755Z,18.37
2017-10-14T16:22:50.005Z,21.42
2017-10-14T16:25:24.415Z,21.27
2017-10-14T16:27:58.974Z,20.83
2017-10-14T16:30:33.442Z,19.90
2017-10-14T16:33:07.914Z,17.45
2017-10-14T16:35:42.362Z,17.25
2017-10-14T16:38:16.774Z,20.67
2017-10-14T16:40:52.027Z,18.52
2017-10-14T16:43:26.523Z,21.50
2017-10-14T16:46:01.031Z,16.62
2017-10-14T16:48:35.628Z,21.48
2017-10-14T16:51:10.876Z,17.80
2017-10-14T16:53:45.311Z,19.83
2017-10-14T16:56:19.777Z,17.92
2017-10-14T16:58:54.126Z,18.73
2017-10-14T17:01:28.631Z,23.83
2017-10-14T17:04:03.148Z,28.23
2017-10-14T17:06:37.715Z,16.30
2017-10-14T17:09:12.265Z,19.40
2017-10-14T17:11:46.574Z,24.95
2017-10-14T17:14:20.915Z,19.62
2017-10-14T17:16:55.355Z,23.30
2017-10-14T17:19:30.655Z,23.17
2017-10-14T17:22:05.587Z,22.87
2017-10-14T17:24:40.013Z,23.48
2017-10-14T17:27:14.384Z,27.02
2017-10-14T17:29:48.861Z,23.20
2017-10-14T17:32:23.406Z,35.60
2017-10-14T17:34:59.073Z,31.52
2017-10-14T17:37:33.510Z,32.10
2017-10-14T17:40:07.970Z,35.92
2017-10-14T17:42:42.263Z,21.10
2017-10-14T17:45:16.821Z,26.58
2017-10-14T17:47:51.304Z,31.70
2017-10-14T17:50:26.517Z,27.65
2017-10-14T17:53:00.940Z,31.40
2017-10-14T17:55:35.442Z,28.60
2017-10-14T17:58:09.930Z,35.33
2017-10-14T18:00:44.312Z,25.92
2017-10-14T18:03:18.767Z,23.05
2017-10-14T18:05:53.271Z,26.48
2017-10-14T18:08:27.597Z,27.37
2017-10-14T18:11:02.035Z,30.73
2017-10-14T18:13:36.398Z,27.25
2017-10-14T18:16:11.129Z,29.50
2017-10-14T18:18:45.677Z,28.85
2017-10-14T18:21:20.154Z,30.83
2017-10-14T18:23:54.755Z,22.25
2017-10-14T18:26:29.922Z,31.00
2017-10-14T18:29:04.525Z,24.23
2017-10-14T18:31:39.101Z,32.35
2017-10-14T18:34:13.611Z,33.72
2017-10-14T18:36:48.238Z,28.75
2017-10-14T18:39:23.009Z,25.45
2017-10-14T18:41:57.585Z,31.02
2017-10-14T18:44:33.151Z,31.83
2017-10-14T18:47:08.070Z,32.58
2017-10-14T18:49:42.751Z,33.50
2017-10-14T18:52:18.224Z,37.10
2017-10-14T18:54:53.057Z,25.77
2017-10-14T18:57:27.769Z,37.58
2017-10-14T19:00:03.682Z,39.38
2017-10-14T19:02:40.301Z,33.40
2017-10-14T19:05:15.733Z,38.65
2017-10-14T19:07:50.579Z,31.60
2017-10-14T19:10:25.613Z,35.80
2017-10-14T19:13:00.254Z,30.23
2017-10-14T19:15:35.184Z,30.58
2017-10-14T19:18:10.084Z,27.17
2017-10-14T19:20:45.055Z,22.60
2017-10-14T19:23:20.075Z,28.10
2017-10-14T19:25:55.059Z,32.28
2017-10-14T19:28:29.826Z,25.02
2017-10-14T19:31:04.623Z,20.62
2017-10-14T19:33:39.488Z,19.95
2017-10-14T19:36:16.057Z,18.35
2017-10-14T19:38:50.969Z,20.90
2017-10-14T19:41:26.630Z,23.10
2017-10-14T19:44:01.604Z,20.60
2017-10-14T19:46:36.335Z,16.30
2017-10-14T19:49:11.178Z,7.68
2017-10-14T19:51:46.026Z,20.23
2017-10-14T19:54:21.060Z,17.27
2017-10-14T19:56:56.000Z,24.42
2017-10-14T19:59:31.046Z,17.73
2017-10-14T20:02:05.909Z,12.48
2017-10-14T20:04:40.677Z,23.30
2017-10-14T20:07:15.735Z,18.02
2017-10-14T20:09:50.517Z,19.48
2017-10-14T20:12:25.503Z,17.15
2017-10-14T20:15:00.154Z,18.67
2017-10-14T20:17:34.950Z,20.62
2017-10-14T20:20:09.598Z,15.30
2017-10-14T20:22:44.209Z,14.70
2017-10-14T20:25:18.765Z,22.70
2017-10-14T20:27:54.340Z,16.73
2017-10-14T20:30:28.881Z,14.13
2017-10-14T20:33:03.276Z,11.80
2017-10-14T20:35:37.809Z,13.10
2017-10-14T20:38:12.681Z,12.68
2017-10-14T20:40:47.114Z,17.30
2017-10-14T20:43:21.525Z,14.95
2017-10-14T20:45:56.044Z,16.05
2017-10-14T20:48:30.538Z,16.37
2017-10-14T20:51:05.049Z,13.75
2017-10-14T20:53:39.602Z,13.32
2017-10-14T20:56:14.754Z,12.65
2017-10-14T20:58:50.212Z,16.33
2017-10-14T21:01:24.572Z,14.98
2017-10-14T21:03:59.065Z,15.20
2017-10-14T21:06:33.443Z,18.20
2017-10-14T21:09:07.988Z,15.35
2017-10-14T21:11:42.339Z,22.15
2017-10-14T21:14:16.813Z,17.77
2017-10-14T21:16:51.309Z,19.42
2017-10-14T21:19:25.721Z,18.42
2017-10-14T21:22:00.225Z,19.15
2017-10-14T21:24:34.626Z,16.23
2017-10-14T21:27:09.072Z,21.60
2017-10-14T21:29:43.601Z,25.00
2017-10-14T21:32:17.958Z,20.42
2017-10-14T21:34:52.545Z,19.67
2017-10-14T21:37:27.837Z,29.95
2017-10-14T21:40:02.397Z,22.08
2017-10-14T21:42:36.742Z,27.90
2017-10-14T21:45:11.109Z,21.80
2017-10-14T21:47:45.576Z,23.60
2017-10-14T21:50:19.996Z,22.60
2017-10-14T21:52:54.355Z,23.05
2017-10-14T21:55:28.770Z,20.70
2017-10-14T21:58:03.202Z,23.23
2017-10-14T22:00:37.750Z,20.52
2017-10-14T22:03:13.059Z,21.25
2017-10-14T22:05:47.507Z,28.30
2017-10-14T22:08:22.150Z,21.17
2017-10-14T22:10:56.509Z,25.48
2017-10-14T22:13:30.884Z,19.83
2017-10-14T22:16:06.061Z,21.05
2017-10-14T22:18:40.609Z,22.45
2017-10-14T22:21:15.432Z,20.15
2017-10-14T22:23:49.912Z,20.20
2017-10-14T22:26:24.438Z,21.45
2017-10-14T22:28:58.894Z,20.92
2017-10-14T22:31:33.420Z,24.27
2017-10-14T22:34:07.877Z,23.67
2017-10-14T22:36:42.222Z,21.45
2017-10-14T22:39:16.568Z,21.48
2017-10-14T22:41:51.054Z,19.98
2017-10-14T22:44:25.816Z,24.55
2017-10-14T22:47:00.356Z,26.67
2017-10-14T22:49:34.837Z,20.37
2017-10-14T22:52:09.321Z,18.92
2017-10-14T22:54:43.789Z,22.02
2017-10-14T22:57:18.273Z,27.90
2017-10-14T22:59:52.707Z,21.20
2017-10-14T23:02:27.065Z,20.12
2017-10-14T23:05:01.483Z,20.83
2017-10-14T23:07:35.973Z,20.48
2017-10-14T23:10:10.473Z,17.83
2017-10-14T23:12:44.883Z,18.92
2017-10-14T23:15:19.193Z,18.40
2017-10-14T23:17:53.625Z,16.05
2017-10-14T23:20:28.892Z,20.37
2017-10-14T23:23:04.009Z,21.75
2017-10-14T23:25:38.423Z,24.40
2017-10-14T23:28:12.971Z,17.02
2017-10-14T23:30:48.184Z,18.98
2017-10-14T23:33:22.618Z,21.27
2017-10-14T23:35:57.745Z,23.55
2017-10-14T23:38:32.281Z,15.95
2017-10-14T23:41:06.787Z,16.73
2017-10-14T23:43:42.122Z,18.73
2017-10-14T23:46:16.714Z,15.52
2017-10-14T23:48:51.200Z,19.00
2017-10-14T23:51:25.806Z,18.30
2017-10-14T23:54:00.192Z,18.73
2017-10-14T23:56:34.707Z,19.77
2017-10-14T23:59:09.045Z,18.67
